sensor_id;sensor_type;location;lat;lon;timestamp;P1;durP1;ratioP1;P2;durP2;ratioP2
18304;SDS011;9278;52.156;21.048;2023-05-27T00:00:36;17.33;;;2.70;;
18304;SDS011;9278;52.156;21.048;2023-05-27T00:03:04;12.20;;;2.83;;
18304;SDS011;9278;52.156;21.048;2023-05-27T00:05:33;16.88;;;3.60;;
18304;SDS011;9278;52.156;21.048;2023-05-27T00:08:03;16.38;;;3.20;;
18304;SDS011;9278;52.156;21.048;2023-05-27T00:10:32;14.52;;;3.47;;
18304;SDS011;9278;52.156;21.048;2023-05-27T00:13:00;11.35;;;2.58;;
18304;SDS011;9278;52.156;21.048;2023-05-27T00:15:29;12.73;;;2.90;;
18304;SDS011;9278;52.156;21.048;2023-05-27T00:17:57;18.50;;;2.83;;
18304;SDS011;9278;52.156;21.048;2023-05-27T00:20:26;16.52;;;3.75;;
18304;SDS011;9278;52.156;21.048;2023-05-27T00:22:56;15.88;;;3.60;;
18304;SDS011;9278;52.156;21.048;2023-05-27T00:25:27;16.38;;;2.83;;
18304;SDS011;9278;52.156;21.048;2023-05-27T00:27:55;10.48;;;2.72;;
18304;SDS011;9278;52.156;21.048;2023-05-27T00:30:23;11.20;;;3.05;;
18304;SDS011;9278;52.156;21.048;2023-05-27T00:32:52;15.63;;;3.22;;
18304;SDS011;9278;52.156;21.048;2023-05-27T00:35:21;14.98;;;2.90;;
18304;SDS011;9278;52.156;21.048;2023-05-27T00:37:49;13.90;;;3.00;;
18304;SDS011;9278;52.156;21.048;2023-05-27T00:40:19;17.20;;;3.22;;
18304;SDS011;9278;52.156;21.048;2023-05-27T00:42:50;11.57;;;3.00;;
18304;SDS011;9278;52.156;21.048;2023-05-27T00:45:18;13.15;;;2.88;;
18304;SDS011;9278;52.156;21.048;2023-05-27T00:47:47;19.33;;;3.75;;
18304;SDS011;9278;52.156;21.048;2023-05-27T00:50:17;13.55;;;2.67;;
18304;SDS011;9278;52.156;21.048;2023-05-27T00:52:48;14.18;;;3.10;;
18304;SDS011;9278;52.156;21.048;2023-05-27T00:55:16;14.13;;;3.30;;
18304;SDS011;9278;52.156;21.048;2023-05-27T00:57:45;11.80;;;3.35;;
18304;SDS011;9278;52.156;21.048;2023-05-27T01:00:15;12.40;;;2.88;;
18304;SDS011;9278;52.156;21.048;2023-05-27T01:02:44;13.38;;;3.78;;
18304;SDS011;9278;52.156;21.048;2023-05-27T01:05:14;18.90;;;3.00;;
18304;SDS011;9278;52.156;21.048;2023-05-27T01:07:47;18.13;;;3.22;;
18304;SDS011;9278;52.156;21.048;2023-05-27T01:10:28;12.32;;;2.88;;
18304;SDS011;9278;52.156;21.048;2023-05-27T01:13:06;12.77;;;2.78;;
18304;SDS011;9278;52.156;21.048;2023-05-27T01:15:40;11.93;;;3.30;;
18304;SDS011;9278;52.156;21.048;2023-05-27T01:18:09;11.60;;;2.78;;
18304;SDS011;9278;52.156;21.048;2023-05-27T01:20:43;12.13;;;3.42;;
18304;SDS011;9278;52.156;21.048;2023-05-27T01:23:15;23.73;;;3.67;;
18304;SDS011;9278;52.156;21.048;2023-05-27T01:25:44;12.20;;;3.25;;
18304;SDS011;9278;52.156;21.048;2023-05-27T01:28:12;9.35;;;3.33;;
18304;SDS011;9278;52.156;21.048;2023-05-27T01:30:40;14.32;;;3.13;;
18304;SDS011;9278;52.156;21.048;2023-05-27T01:33:09;12.00;;;3.28;;
18304;SDS011;9278;52.156;21.048;2023-05-27T01:35:41;12.02;;;3.10;;
18304;SDS011;9278;52.156;21.048;2023-05-27T01:38:13;12.50;;;2.95;;
18304;SDS011;9278;52.156;21.048;2023-05-27T01:40:47;16.02;;;3.38;;
18304;SDS011;9278;52.156;21.048;2023-05-27T01:43:17;21.00;;;4.05;;
18304;SDS011;9278;52.156;21.048;2023-05-27T01:45:47;13.13;;;2.95;;
18304;SDS011;9278;52.156;21.048;2023-05-27T01:48:15;16.90;;;3.17;;
18304;SDS011;9278;52.156;21.048;2023-05-27T01:50:45;10.73;;;2.63;;
18304;SDS011;9278;52.156;21.048;2023-05-27T01:53:15;11.57;;;3.20;;
18304;SDS011;9278;52.156;21.048;2023-05-27T01:55:43;18.80;;;3.60;;
18304;SDS011;9278;52.156;21.048;2023-05-27T01:58:12;18.55;;;3.35;;
18304;SDS011;9278;52.156;21.048;2023-05-27T02:00:40;13.25;;;3.30;;
18304;SDS011;9278;52.156;21.048;2023-05-27T02:03:09;13.20;;;2.95;;
18304;SDS011;9278;52.156;21.048;2023-05-27T02:05:37;15.52;;;3.20;;
18304;SDS011;9278;52.156;21.048;2023-05-27T02:08:07;20.33;;;3.97;;
18304;SDS011;9278;52.156;21.048;2023-05-27T02:10:37;14.68;;;3.20;;
18304;SDS011;9278;52.156;21.048;2023-05-27T02:13:08;16.40;;;3.72;;
18304;SDS011;9278;52.156;21.048;2023-05-27T02:15:36;9.15;;;3.53;;
18304;SDS011;9278;52.156;21.048;2023-05-27T02:18:05;12.50;;;3.47;;
18304;SDS011;9278;52.156;21.048;2023-05-27T02:20:34;19.55;;;3.85;;
18304;SDS011;9278;52.156;21.048;2023-05-27T02:23:07;16.20;;;3.55;;
18304;SDS011;9278;52.156;21.048;2023-05-27T02:25:35;15.73;;;4.15;;
18304;SDS011;9278;52.156;21.048;2023-05-27T02:28:05;15.73;;;3.90;;
18304;SDS011;9278;52.156;21.048;2023-05-27T02:30:34;23.63;;;4.00;;
18304;SDS011;9278;52.156;21.048;2023-05-27T02:33:02;13.75;;;3.60;;
18304;SDS011;9278;52.156;21.048;2023-05-27T02:35:30;12.65;;;3.50;;
18304;SDS011;9278;52.156;21.048;2023-05-27T02:37:59;14.40;;;3.53;;
18304;SDS011;9278;52.156;21.048;2023-05-27T02:40:28;21.08;;;3.72;;
18304;SDS011;9278;52.156;21.048;2023-05-27T02:42:58;15.98;;;3.45;;
18304;SDS011;9278;52.156;21.048;2023-05-27T02:45:26;19.60;;;3.55;;
18304;SDS011;9278;52.156;21.048;2023-05-27T02:47:55;11.38;;;3.60;;
18304;SDS011;9278;52.156;21.048;2023-05-27T02:50:26;17.00;;;4.05;;
18304;SDS011;9278;52.156;21.048;2023-05-27T02:52:54;15.88;;;3.67;;
18304;SDS011;9278;52.156;21.048;2023-05-27T02:55:22;13.60;;;3.33;;
18304;SDS011;9278;52.156;21.048;2023-05-27T02:57:51;12.80;;;2.80;;
18304;SDS011;9278;52.156;21.048;2023-05-27T03:00:20;18.67;;;3.60;;
18304;SDS011;9278;52.156;21.048;2023-05-27T03:02:49;16.00;;;3.28;;
18304;SDS011;9278;52.156;21.048;2023-05-27T03:05:17;13.40;;;3.58;;
18304;SDS011;9278;52.156;21.048;2023-05-27T03:07:48;15.85;;;3.38;;
18304;SDS011;9278;52.156;21.048;2023-05-27T03:10:17;14.10;;;3.08;;
18304;SDS011;9278;52.156;21.048;2023-05-27T03:12:46;15.50;;;3.90;;
18304;SDS011;9278;52.156;21.048;2023-05-27T03:15:14;12.40;;;3.25;;
18304;SDS011;9278;52.156;21.048;2023-05-27T03:17:44;21.05;;;3.65;;
18304;SDS011;9278;52.156;21.048;2023-05-27T03:20:12;15.52;;;4.03;;
18304;SDS011;9278;52.156;21.048;2023-05-27T03:22:43;19.98;;;4.45;;
18304;SDS011;9278;52.156;21.048;2023-05-27T03:25:11;14.48;;;3.30;;
18304;SDS011;9278;52.156;21.048;2023-05-27T03:27:39;20.17;;;3.50;;
18304;SDS011;9278;52.156;21.048;2023-05-27T03:30:12;15.80;;;3.22;;
18304;SDS011;9278;52.156;21.048;2023-05-27T03:32:47;14.35;;;4.40;;
18304;SDS011;9278;52.156;21.048;2023-05-27T03:35:20;16.27;;;3.88;;
18304;SDS011;9278;52.156;21.048;2023-05-27T03:37:49;19.27;;;3.38;;
18304;SDS011;9278;52.156;21.048;2023-05-27T03:40:17;15.02;;;3.33;;
18304;SDS011;9278;52.156;21.048;2023-05-27T03:42:45;16.35;;;3.47;;
18304;SDS011;9278;52.156;21.048;2023-05-27T03:45:18;15.23;;;3.80;;
18304;SDS011;9278;52.156;21.048;2023-05-27T03:47:48;19.85;;;3.30;;
18304;SDS011;9278;52.156;21.048;2023-05-27T03:50:18;14.65;;;3.55;;
18304;SDS011;9278;52.156;21.048;2023-05-27T03:52:46;12.82;;;3.53;;
18304;SDS011;9278;52.156;21.048;2023-05-27T03:55:15;16.17;;;3.58;;
18304;SDS011;9278;52.156;21.048;2023-05-27T03:57:44;16.10;;;3.38;;
18304;SDS011;9278;52.156;21.048;2023-05-27T04:00:12;16.73;;;3.65;;
18304;SDS011;9278;52.156;21.048;2023-05-27T04:02:52;10.95;;;2.90;;
18304;SDS011;9278;52.156;21.048;2023-05-27T04:05:22;13.88;;;3.35;;
18304;SDS011;9278;52.156;21.048;2023-05-27T04:07:51;14.75;;;3.10;;
18304;SDS011;9278;52.156;21.048;2023-05-27T04:10:20;11.07;;;2.85;;
18304;SDS011;9278;52.156;21.048;2023-05-27T04:12:48;14.32;;;3.45;;
18304;SDS011;9278;52.156;21.048;2023-05-27T04:15:16;13.27;;;3.38;;
18304;SDS011;9278;52.156;21.048;2023-05-27T04:17:44;18.67;;;3.20;;
18304;SDS011;9278;52.156;21.048;2023-05-27T04:20:15;16.00;;;3.65;;
18304;SDS011;9278;52.156;21.048;2023-05-27T04:22:47;13.93;;;3.03;;
18304;SDS011;9278;52.156;21.048;2023-05-27T04:25:17;15.40;;;3.42;;
18304;SDS011;9278;52.156;21.048;2023-05-27T04:28:02;16.35;;;3.33;;
18304;SDS011;9278;52.156;21.048;2023-05-27T04:30:33;15.60;;;3.40;;
18304;SDS011;9278;52.156;21.048;2023-05-27T04:33:09;11.45;;;2.95;;
18304;SDS011;9278;52.156;21.048;2023-05-27T04:35:39;11.73;;;3.22;;
18304;SDS011;9278;52.156;21.048;2023-05-27T04:38:11;13.23;;;2.97;;
18304;SDS011;9278;52.156;21.048;2023-05-27T04:40:52;14.35;;;3.50;;
18304;SDS011;9278;52.156;21.048;2023-05-27T04:43:35;12.50;;;3.35;;
18304;SDS011;9278;52.156;21.048;2023-05-27T04:46:04;13.20;;;3.28;;
18304;SDS011;9278;52.156;21.048;2023-05-27T04:48:33;15.40;;;3.17;;
18304;SDS011;9278;52.156;21.048;2023-05-27T04:51:03;12.70;;;3.80;;
18304;SDS011;9278;52.156;21.048;2023-05-27T04:53:31;15.18;;;3.30;;
18304;SDS011;9278;52.156;21.048;2023-05-27T04:56:01;15.75;;;3.40;;
18304;SDS011;9278;52.156;21.048;2023-05-27T04:58:31;12.65;;;3.20;;
18304;SDS011;9278;52.156;21.048;2023-05-27T05:01:01;16.95;;;3.50;;
18304;SDS011;9278;52.156;21.048;2023-05-27T05:03:31;19.15;;;3.53;;
18304;SDS011;9278;52.156;21.048;2023-05-27T05:06:08;10.05;;;3.13;;
18304;SDS011;9278;52.156;21.048;2023-05-27T05:08:36;12.60;;;3.33;;
18304;SDS011;9278;52.156;21.048;2023-05-27T05:11:05;16.40;;;3.55;;
18304;SDS011;9278;52.156;21.048;2023-05-27T05:13:33;14.95;;;3.83;;
18304;SDS011;9278;52.156;21.048;2023-05-27T05:16:01;12.02;;;3.58;;
18304;SDS011;9278;52.156;21.048;2023-05-27T05:18:30;10.88;;;3.20;;
18304;SDS011;9278;52.156;21.048;2023-05-27T05:20:58;16.00;;;3.15;;
18304;SDS011;9278;52.156;21.048;2023-05-27T05:23:35;10.65;;;2.95;;
18304;SDS011;9278;52.156;21.048;2023-05-27T05:26:05;11.57;;;3.50;;
18304;SDS011;9278;52.156;21.048;2023-05-27T05:28:39;14.43;;;3.05;;
18304;SDS011;9278;52.156;21.048;2023-05-27T05:31:08;12.07;;;2.63;;
18304;SDS011;9278;52.156;21.048;2023-05-27T05:33:36;9.15;;;2.72;;
18304;SDS011;9278;52.156;21.048;2023-05-27T05:36:06;12.25;;;2.92;;
18304;SDS011;9278;52.156;21.048;2023-05-27T05:38:55;12.35;;;3.05;;
18304;SDS011;9278;52.156;21.048;2023-05-27T05:41:24;13.25;;;2.97;;
18304;SDS011;9278;52.156;21.048;2023-05-27T05:43:52;7.20;;;2.63;;
18304;SDS011;9278;52.156;21.048;2023-05-27T05:46:21;9.50;;;2.80;;
18304;SDS011;9278;52.156;21.048;2023-05-27T05:48:51;11.77;;;3.40;;
18304;SDS011;9278;52.156;21.048;2023-05-27T05:51:30;8.68;;;2.28;;
18304;SDS011;9278;52.156;21.048;2023-05-27T05:54:01;13.43;;;3.10;;
18304;SDS011;9278;52.156;21.048;2023-05-27T05:56:31;10.90;;;2.88;;
18304;SDS011;9278;52.156;21.048;2023-05-27T05:59:00;10.20;;;2.90;;
18304;SDS011;9278;52.156;21.048;2023-05-27T06:01:31;8.13;;;2.67;;
18304;SDS011;9278;52.156;21.048;2023-05-27T06:03:59;4.93;;;2.17;;
18304;SDS011;9278;52.156;21.048;2023-05-27T06:06:38;10.90;;;3.35;;
18304;SDS011;9278;52.156;21.048;2023-05-27T06:09:23;11.07;;;2.45;;
18304;SDS011;9278;52.156;21.048;2023-05-27T06:11:54;13.95;;;3.13;;
18304;SDS011;9278;52.156;21.048;2023-05-27T06:14:23;9.85;;;2.38;;
18304;SDS011;9278;52.156;21.048;2023-05-27T06:16:55;9.27;;;2.17;;
18304;SDS011;9278;52.156;21.048;2023-05-27T06:19:23;10.57;;;2.65;;
18304;SDS011;9278;52.156;21.048;2023-05-27T06:21:52;8.43;;;2.65;;
18304;SDS011;9278;52.156;21.048;2023-05-27T06:24:56;6.35;;;2.33;;
18304;SDS011;9278;52.156;21.048;2023-05-27T06:27:41;6.93;;;2.75;;
18304;SDS011;9278;52.156;21.048;2023-05-27T06:30:10;11.93;;;2.42;;
18304;SDS011;9278;52.156;21.048;2023-05-27T06:32:41;7.68;;;2.03;;
18304;SDS011;9278;52.156;21.048;2023-05-27T06:35:10;9.88;;;2.22;;
18304;SDS011;9278;52.156;21.048;2023-05-27T06:37:39;8.68;;;2.40;;
18304;SDS011;9278;52.156;21.048;2023-05-27T06:40:09;12.27;;;2.67;;
18304;SDS011;9278;52.156;21.048;2023-05-27T06:42:38;7.78;;;2.58;;
18304;SDS011;9278;52.156;21.048;2023-05-27T06:45:33;7.40;;;2.33;;
18304;SDS011;9278;52.156;21.048;2023-05-27T06:48:24;8.60;;;2.75;;
18304;SDS011;9278;52.156;21.048;2023-05-27T06:50:52;4.70;;;1.98;;
18304;SDS011;9278;52.156;21.048;2023-05-27T06:53:21;7.68;;;2.10;;
18304;SDS011;9278;52.156;21.048;2023-05-27T06:55:54;7.53;;;2.00;;
18304;SDS011;9278;52.156;21.048;2023-05-27T06:58:25;9.02;;;2.22;;
18304;SDS011;9278;52.156;21.048;2023-05-27T07:00:56;9.40;;;2.25;;
18304;SDS011;9278;52.156;21.048;2023-05-27T07:03:28;11.70;;;2.33;;
18304;SDS011;9278;52.156;21.048;2023-05-27T07:05:57;5.72;;;1.90;;
18304;SDS011;9278;52.156;21.048;2023-05-27T07:08:29;9.18;;;2.20;;
18304;SDS011;9278;52.156;21.048;2023-05-27T07:11:20;8.07;;;2.17;;
18304;SDS011;9278;52.156;21.048;2023-05-27T07:13:50;10.10;;;2.28;;
18304;SDS011;9278;52.156;21.048;2023-05-27T07:16:22;7.40;;;2.00;;
18304;SDS011;9278;52.156;21.048;2023-05-27T07:18:51;14.60;;;2.30;;
18304;SDS011;9278;52.156;21.048;2023-05-27T07:21:20;12.50;;;2.25;;
18304;SDS011;9278;52.156;21.048;2023-05-27T07:23:49;5.93;;;2.33;;
18304;SDS011;9278;52.156;21.048;2023-05-27T07:26:27;3.65;;;1.80;;
18304;SDS011;9278;52.156;21.048;2023-05-27T07:28:56;6.82;;;2.47;;
18304;SDS011;9278;52.156;21.048;2023-05-27T07:31:48;6.97;;;2.58;;
18304;SDS011;9278;52.156;21.048;2023-05-27T07:34:18;8.13;;;2.22;;
18304;SDS011;9278;52.156;21.048;2023-05-27T07:36:47;10.30;;;2.00;;
18304;SDS011;9278;52.156;21.048;2023-05-27T07:39:15;9.38;;;2.00;;
18304;SDS011;9278;52.156;21.048;2023-05-27T07:41:45;13.95;;;1.92;;
18304;SDS011;9278;52.156;21.048;2023-05-27T07:44:14;5.72;;;1.98;;
18304;SDS011;9278;52.156;21.048;2023-05-27T07:46:42;7.13;;;2.25;;
18304;SDS011;9278;52.156;21.048;2023-05-27T07:49:12;5.88;;;1.70;;
18304;SDS011;9278;52.156;21.048;2023-05-27T07:51:53;3.85;;;1.80;;
18304;SDS011;9278;52.156;21.048;2023-05-27T07:54:21;20.45;;;2.78;;
18304;SDS011;9278;52.156;21.048;2023-05-27T07:56:51;17.67;;;3.10;;
18304;SDS011;9278;52.156;21.048;2023-05-27T07:59:19;8.43;;;2.00;;
18304;SDS011;9278;52.156;21.048;2023-05-27T08:01:48;8.20;;;1.65;;
18304;SDS011;9278;52.156;21.048;2023-05-27T08:04:16;8.35;;;1.77;;
18304;SDS011;9278;52.156;21.048;2023-05-27T08:07:08;13.02;;;2.60;;
